Time;durP1;ratioP1;P1;durP2;ratioP2;P2;SDS_P1;SDS_P2;PMS_P1;PMS_P2;Temp;Humidity;BMP_temperature;BMP_pressure;BME280_temperature;BME280_humidity;BME280_pressure;Samples;Min_cycle;Max_cycle;Signal;HPM_P1;HPM_P2
2022/03/10 00:00:10;;;;;;;5.40;3.65;;;;;;;17.79;48.78;99703.19;5007314;28;20053;-91
2022/03/10 00:02:36;;;;;;;6.85;3.72;;;;;;;17.79;48.97;99697.91;5007962;28;20094;-90
2022/03/10 00:05:03;;;;;;;6.55;3.80;;;;;;;17.78;48.66;99696.19;5011381;28;20026;-91
2022/03/10 00:07:29;;;;;;;5.60;3.78;;;;;;;17.77;49.13;99702.41;5009613;28;20034;-91
2022/03/10 00:09:54;;;;;;;5.75;3.60;;;;;;;17.79;48.84;99703.19;5007788;28;20058;-90
2022/03/10 00:12:20;;;;;;;5.13;3.30;;;;;;;17.78;48.91;99702.31;5008634;28;20094;-92
2022/03/10 00:14:46;;;;;;;6.35;3.65;;;;;;;17.78;48.82;99701.47;5007592;28;20022;-91
2022/03/10 00:17:12;;;;;;;6.07;3.58;;;;;;;17.78;48.99;99698.84;5025764;28;20034;-91
2022/03/10 00:19:37;;;;;;;5.18;3.40;;;;;;;17.78;48.94;99693.56;5008596;28;20414;-90
2022/03/10 00:22:03;;;;;;;5.90;3.65;;;;;;;17.79;48.90;99700.53;5008572;28;20037;-91
2022/03/10 00:24:29;;;;;;;7.20;4.13;;;;;;;17.77;48.63;99697.13;5006788;28;20025;-91
2022/03/10 00:26:54;;;;;;;5.22;3.25;;;;;;;17.77;49.02;99697.97;5009671;28;20045;-91
2022/03/10 00:29:20;;;;;;;5.07;3.60;;;;;;;17.78;48.80;99701.47;5008202;28;20057;-90
2022/03/10 00:31:45;;;;;;;5.78;3.90;;;;;;;17.78;48.83;99704.13;5008126;28;20359;-90
2022/03/10 00:34:11;;;;;;;5.53;3.65;;;;;;;17.77;48.93;99703.25;5007833;28;20363;-90
2022/03/10 00:36:37;;;;;;;5.35;3.58;;;;;;;17.78;48.94;99696.19;5007364;28;20026;-90
2022/03/10 00:39:04;;;;;;;5.95;3.60;;;;;;;17.77;48.91;99692.69;5006158;28;20124;-90
2022/03/10 00:41:29;;;;;;;6.97;3.83;;;;;;;17.77;49.00;99702.41;5007992;28;20034;-90
2022/03/10 00:43:55;;;;;;;6.15;3.70;;;;;;;17.78;48.86;99693.56;5006955;28;20371;-90
2022/03/10 00:46:20;;;;;;;5.97;3.60;;;;;;;17.78;48.92;99698.84;5010555;28;20436;-90
2022/03/10 00:48:46;;;;;;;4.90;3.55;;;;;;;17.76;48.79;99703.31;5007491;28;20041;-91
2022/03/10 00:51:12;;;;;;;6.65;3.63;;;;;;;17.77;48.73;99702.41;5007721;28;20026;-91
2022/03/10 00:53:37;;;;;;;5.18;3.30;;;;;;;17.75;48.74;99704.22;5007180;28;20045;-91
2022/03/10 00:56:03;;;;;;;4.80;3.28;;;;;;;17.74;48.92;99703.41;5007989;28;20025;-92
2022/03/10 00:58:28;;;;;;;4.63;3.70;;;;;;;17.75;48.73;99701.59;5009352;28;20025;-90
2022/03/10 01:00:54;;;;;;;4.57;3.47;;;;;;;17.75;48.87;99696.31;5008045;28;20567;-90
2022/03/10 01:03:20;;;;;;;5.43;3.55;;;;;;;17.74;48.83;99706.03;5007719;28;20025;-91
2022/03/10 01:05:46;;;;;;;6.28;3.65;;;;;;;17.75;48.96;99705.09;5007423;28;20026;-91
2022/03/10 01:08:12;;;;;;;5.75;3.50;;;;;;;17.73;48.95;99696.41;5007864;28;20034;-91
2022/03/10 01:10:38;;;;;;;5.35;3.33;;;;;;;17.73;48.95;99700.81;5005394;28;20132;-91
2022/03/10 01:13:11;;;;;;;5.85;3.63;;;;;;;17.73;48.82;99693.75;5006633;28;20452;-90
2022/03/10 01:15:37;;;;;;;4.70;3.60;;;;;;;17.73;48.93;99695.53;5007014;28;20410;-90
2022/03/10 01:18:03;;;;;;;6.80;3.88;;;;;;;17.71;49.03;99693.81;5006417;28;20025;-91
2022/03/10 01:20:28;;;;;;;4.75;3.35;;;;;;;17.71;48.75;99693.81;5005532;28;20044;-90
2022/03/10 01:22:54;;;;;;;4.82;3.40;;;;;;;17.71;49.14;99699.09;5006327;28;20033;-91
2022/03/10 01:25:19;;;;;;;4.68;3.38;;;;;;;17.73;49.09;99695.53;5006340;28;20030;-91
2022/03/10 01:27:46;;;;;;;7.32;3.88;;;;;;;17.73;48.77;99701.69;5006040;28;20036;-90
2022/03/10 01:30:13;;;;;;;5.45;3.60;;;;;;;17.73;48.91;99700.81;5022660;28;20022;-90
2022/03/10 01:32:39;;;;;;;5.40;3.35;;;;;;;17.71;48.95;99699.09;5005808;28;20481;-91
2022/03/10 01:35:05;;;;;;;7.90;3.92;;;;;;;17.72;48.81;99699.94;5004988;28;20116;-90
2022/03/10 01:37:34;;;;;;;5.93;3.50;;;;;;;17.72;48.83;99694.66;5008849;28;20375;-90
2022/03/10 01:39:59;;;;;;;5.70;3.78;;;;;;;17.71;48.82;99716.72;5009211;28;20399;-90
2022/03/10 01:42:25;;;;;;;5.15;3.38;;;;;;;17.70;48.85;99705.31;5009460;28;20029;-90
2022/03/10 01:44:54;;;;;;;6.30;3.55;;;;;;;17.70;48.97;99710.59;5026447;28;20026;-91
2022/03/10 01:47:20;;;;;;;4.88;3.17;;;;;;;17.69;49.05;99703.56;5008908;28;20036;-90
2022/03/10 01:49:45;;;;;;;4.65;3.20;;;;;;;17.72;48.90;99694.66;5011212;28;20034;-91
2022/03/10 01:52:12;;;;;;;6.15;3.40;;;;;;;17.70;49.05;99692.13;5013165;28;20033;-91
2022/03/10 01:54:40;;;;;;;4.60;3.22;;;;;;;17.70;48.95;99691.25;5010454;28;20108;-90
2022/03/10 01:57:06;;;;;;;4.72;3.05;;;;;;;17.70;48.92;99681.56;5010085;28;20036;-91
2022/03/10 01:59:32;;;;;;;5.43;3.33;;;;;;;17.71;48.88;99679.75;5010235;28;20054;-90
2022/03/10 02:01:58;;;;;;;5.22;3.28;;;;;;;17.73;48.80;99680.56;5011008;28;20371;-90
2022/03/10 02:04:23;;;;;;;5.38;3.38;;;;;;;17.73;48.95;99679.69;5009598;28;20022;-90
2022/03/10 02:06:50;;;;;;;5.80;3.47;;;;;;;17.74;49.08;99681.41;5010295;28;20045;-91
2022/03/10 02:11:59;;;;;;;5.28;3.45;;;;;;;17.71;48.91;99671.84;5026325;28;20076;-91
2022/03/10 02:17:21;;;;;;;5.63;3.10;;;;;;;17.69;48.91;99666.63;5026312;28;20487;-91
2022/03/10 02:19:52;;;;;;;5.53;3.53;;;;;;;17.70;48.75;99665.72;5009022;28;20117;-91
2022/03/10 02:22:20;;;;;;;5.28;3.47;;;;;;;17.71;48.80;99669.19;5009195;28;20026;-92
2022/03/10 02:24:46;;;;;;;4.80;3.20;;;;;;;17.71;48.87;99662.16;5009066;28;20025;-91
2022/03/10 02:27:14;;;;;;;5.30;3.15;;;;;;;17.71;48.95;99654.25;5009494;28;20034;-91
2022/03/10 02:29:43;;;;;;;6.28;3.40;;;;;;;17.70;48.82;99652.53;5008953;28;20032;-90
2022/03/10 02:32:12;;;;;;;5.18;2.92;;;;;;;17.68;48.92;99645.59;5013032;28;20089;-92
2022/03/10 02:34:39;;;;;;;4.72;3.25;;;;;;;17.70;48.92;99655.16;5009656;28;20072;-90
2022/03/10 02:37:05;;;;;;;4.32;2.58;;;;;;;17.69;48.81;99656.06;5009724;28;20030;-90
2022/03/10 02:39:32;;;;;;;5.00;3.03;;;;;;;17.68;48.98;99656.16;5008892;28;20045;-90
2022/03/10 02:41:57;;;;;;;5.22;2.92;;;;;;;17.67;48.91;99647.38;5009425;28;20026;-90
2022/03/10 02:44:24;;;;;;;5.85;3.30;;;;;;;17.67;49.21;99652.66;5009303;28;20040;-90
2022/03/10 02:46:51;;;;;;;4.82;2.92;;;;;;;17.67;49.11;99650.00;5007395;28;20034;-90
2022/03/10 02:49:17;;;;;;;5.32;3.22;;;;;;;17.67;48.85;99650.00;5007965;28;20037;-91
2022/03/10 02:51:43;;;;;;;4.63;2.97;;;;;;;17.67;49.12;99639.44;5009414;28;20034;-91
2022/03/10 02:54:08;;;;;;;4.97;3.05;;;;;;;17.66;48.81;99637.75;5009694;28;20149;-90
2022/03/10 02:56:35;;;;;;;4.88;3.03;;;;;;;17.66;49.12;99643.03;5009606;28;20030;-90
2022/03/10 02:59:00;;;;;;;5.15;3.03;;;;;;;17.66;49.09;99637.75;5009790;28;20439;-91
2022/03/10 03:01:26;;;;;;;4.07;2.72;;;;;;;17.65;48.86;99640.44;5008643;28;20030;-91
2022/03/10 03:03:52;;;;;;;4.63;3.00;;;;;;;17.66;48.87;99640.38;5009373;28;20040;-90
2022/03/10 03:06:19;;;;;;;5.50;3.28;;;;;;;17.66;49.06;99643.03;5008283;28;20034;-90
2022/03/10 03:08:45;;;;;;;5.72;2.90;;;;;;;17.65;48.75;99646.59;5008417;28;20475;-90
2022/03/10 03:11:10;;;;;;;4.82;3.03;;;;;;;17.67;48.87;99655.28;5009938;28;20034;-91
2022/03/10 03:13:36;;;;;;;4.72;2.95;;;;;;;17.66;48.95;99655.34;5008133;28;20026;-90
2022/03/10 03:16:02;;;;;;;4.70;2.80;;;;;;;17.66;48.89;99644.78;5008461;28;20057;-91
2022/03/10 03:18:27;;;;;;;5.55;3.30;;;;;;;17.65;49.09;99651.00;5007424;28;20036;-90
2022/03/10 03:20:53;;;;;;;5.07;3.30;;;;;;;17.64;48.91;99650.16;5024842;28;20105;-90
2022/03/10 03:23:18;;;;;;;4.55;2.70;;;;;;;17.64;48.81;99650.16;5007425;28;20022;-90
2022/03/10 03:25:44;;;;;;;4.50;3.08;;;;;;;17.64;49.07;99655.44;5007421;28;20034;-90
2022/03/10 03:28:09;;;;;;;5.25;2.95;;;;;;;17.62;48.84;99648.50;5007044;28;20025;-91
2022/03/10 03:30:35;;;;;;;4.38;2.97;;;;;;;17.64;48.96;99646.66;5012296;28;20017;-90
2022/03/10 03:33:00;;;;;;;4.25;2.80;;;;;;;17.61;49.07;99650.28;5006259;28;20037;-91
2022/03/10 03:35:26;;;;;;;4.93;2.95;;;;;;;17.62;49.19;99652.00;5007611;28;20044;-91
2022/03/10 03:37:52;;;;;;;4.38;2.88;;;;;;;17.63;49.00;99653.69;5006520;28;20183;-90
2022/03/10 03:40:17;;;;;;;4.57;2.72;;;;;;;17.64;48.86;99649.28;5006684;28;20199;-90
2022/03/10 03:42:44;;;;;;;4.63;3.10;;;;;;;17.64;48.66;99654.56;5006783;28;20129;-91
2022/03/10 03:45:10;;;;;;;4.95;3.05;;;;;;;17.63;49.11;99653.69;5006418;28;20115;-90
2022/03/10 03:47:36;;;;;;;5.32;3.33;;;;;;;17.62;49.15;99644.06;5009597;28;20029;-90
2022/03/10 03:50:04;;;;;;;3.88;2.60;;;;;;;17.62;48.90;99652.00;5007443;28;20539;-90
2022/03/10 03:52:29;;;;;;;5.05;2.88;;;;;;;17.62;48.98;99656.44;5009482;28;20044;-91
2022/03/10 03:54:55;;;;;;;4.95;2.97;;;;;;;17.62;49.09;99659.91;5011910;28;20034;-91
2022/03/10 03:57:21;;;;;;;5.55;3.10;;;;;;;17.61;49.03;99660.84;5014334;28;20487;-90
2022/03/10 03:59:46;;;;;;;4.25;2.72;;;;;;;17.60;48.97;99661.78;5013947;28;20026;-91
2022/03/10 04:02:12;;;;;;;5.38;3.00;;;;;;;17.60;48.90;99669.69;5015535;28;20040;-90
2022/03/10 04:04:38;;;;;;;4.72;3.13;;;;;;;17.59;49.03;99662.69;5013371;28;20044;-91
2022/03/10 04:07:04;;;;;;;4.22;2.72;;;;;;;17.61;49.12;99671.38;5014855;28;20036;-90
2022/03/10 04:09:29;;;;;;;5.43;2.90;;;;;;;17.61;49.02;99676.66;5015845;28;20105;-91
2022/03/10 04:11:55;;;;;;;4.95;3.00;;;;;;;17.62;48.94;99662.53;5014934;28;20444;-91
2022/03/10 04:14:20;;;;;;;5.60;3.00;;;;;;;17.60;48.98;99667.03;5015106;28;20026;-90
2022/03/10 04:16:46;;;;;;;5.32;3.10;;;;;;;17.59;48.92;99673.25;5015929;28;20025;-91
2022/03/10 04:19:11;;;;;;;5.40;2.83;;;;;;;17.60;49.11;99668.81;5014719;28;20041;-91
2022/03/10 04:21:37;;;;;;;4.18;2.67;;;;;;;17.58;49.04;99674.19;5014837;28;20042;-91
2022/03/10 04:24:03;;;;;;;4.85;2.60;;;;;;;17.57;49.11;99675.06;5014359;28;20120;-91
2022/03/10 04:26:29;;;;;;;5.47;2.90;;;;;;;17.59;48.92;99675.88;5014965;28;20061;-91
2022/03/10 04:28:54;;;;;;;4.55;2.53;;;;;;;17.56;49.38;99668.09;5013901;28;20527;-91
2022/03/10 04:31:20;;;;;;;4.45;2.60;;;;;;;17.59;49.21;99673.25;5011799;28;20025;-91
2022/03/10 04:33:46;;;;;;;5.13;3.13;;;;;;;17.57;49.03;99669.81;5011613;28;20368;-91
2022/03/10 04:36:12;;;;;;;4.20;2.60;;;;;;;17.57;49.34;99667.16;5011814;28;20054;-90
2022/03/10 04:38:37;;;;;;;5.32;2.65;;;;;;;17.57;48.98;99665.41;5013526;28;20045;-91
2022/03/10 04:41:03;;;;;;;4.88;3.08;;;;;;;17.55;49.42;99669.03;5013177;28;20127;-91
2022/03/10 04:43:28;;;;;;;4.43;2.78;;;;;;;17.56;49.43;99673.38;5012295;28;20021;-91
2022/03/10 04:45:55;;;;;;;5.20;2.72;;;;;;;17.56;49.22;99671.59;5010311;28;20029;-91
2022/03/10 04:48:21;;;;;;;5.20;2.83;;;;;;;17.56;49.27;99662.81;5014583;28;20057;-91
2022/03/10 04:50:47;;;;;;;3.58;2.40;;;;;;;17.55;49.02;99666.38;5013606;28;20084;-91
2022/03/10 04:53:13;;;;;;;5.85;2.85;;;;;;;17.56;49.27;99671.59;5012175;28;20057;-91
2022/03/10 04:55:39;;;;;;;4.65;2.83;;;;;;;17.54;49.13;99678.69;5012406;28;20025;-91
2022/03/10 04:58:05;;;;;;;4.75;2.67;;;;;;;17.55;49.25;99674.28;5011721;28;20436;-92
2022/03/10 05:00:31;;;;;;;5.10;2.80;;;;;;;17.56;49.53;99678.66;5006589;28;20026;-91
2022/03/10 05:02:57;;;;;;;5.00;2.70;;;;;;;17.54;49.23;99676.06;5005695;28;20017;-91
2022/03/10 05:05:23;;;;;;;3.63;2.38;;;;;;;17.54;49.22;99669.94;5007919;28;20029;-92
2022/03/10 05:07:49;;;;;;;4.80;2.30;;;;;;;17.55;48.95;99680.44;5009141;28;20025;-91
2022/03/10 05:10:15;;;;;;;4.18;2.58;;;;;;;17.53;49.33;99676.16;5005987;28;20076;-91
2022/03/10 05:12:50;;;;;;;5.80;3.08;;;;;;;17.53;49.04;99678.78;5007681;28;20033;-91
2022/03/10 05:15:23;;;;;;;4.30;2.70;;;;;;;17.52;49.07;99672.66;5026576;28;20041;-90
2022/03/10 05:17:50;;;;;;;4.88;2.75;;;;;;;17.53;49.14;99668.25;5004521;28;20037;-91
2022/03/10 05:20:16;;;;;;;4.43;2.25;;;;;;;17.53;49.03;99662.97;5005477;28;20069;-90
2022/03/10 05:26:04;;;;;;;3.53;2.13;;;;;;;17.53;49.17;99662.97;5022518;28;20088;-91
2022/03/10 05:28:30;;;;;;;4.30;2.67;;;;;;;17.53;49.18;99662.97;5007426;28;20037;-91
2022/03/10 05:30:55;;;;;;;3.95;2.35;;;;;;;17.52;49.36;99655.94;5011172;28;20030;-91
2022/03/10 05:33:21;;;;;;;3.47;2.15;;;;;;;17.54;49.24;99654.13;5006512;28;20034;-91
2022/03/10 05:35:46;;;;;;;4.45;2.53;;;;;;;17.54;49.36;99656.75;5007393;28;20093;-90
2022/03/10 05:38:12;;;;;;;5.55;2.53;;;;;;;17.54;49.10;99654.13;5006931;28;20029;-90
2022/03/10 05:40:37;;;;;;;5.00;3.00;;;;;;;17.55;49.07;99661.09;5009282;28;20030;-90
2022/03/10 05:43:03;;;;;;;5.95;3.00;;;;;;;17.53;49.42;99655.03;5007223;28;20034;-91
2022/03/10 05:45:29;;;;;;;4.75;2.85;;;;;;;17.53;49.54;99657.69;5008012;28;20030;-90
2022/03/10 05:47:56;;;;;;;5.35;2.58;;;;;;;17.52;49.44;99650.66;5007418;28;20048;-91
2022/03/10 05:50:24;;;;;;;4.35;2.78;;;;;;;17.52;49.24;99648.03;5006761;28;20030;-91
2022/03/10 05:52:50;;;;;;;4.55;2.55;;;;;;;17.53;49.43;99647.13;5008749;28;20049;-91
2022/03/10 05:55:16;;;;;;;4.15;2.22;;;;;;;17.52;49.33;99650.66;5012243;28;20029;-91
2022/03/10 05:57:42;;;;;;;4.10;2.55;;;;;;;17.51;49.50;99643.69;5007549;28;20022;-90
2022/03/10 06:00:10;;;;;;;4.05;2.53;;;;;;;17.51;49.01;99646.31;5007674;28;20172;-91
2022/03/10 06:02:36;;;;;;;4.22;2.40;;;;;;;17.50;49.18;99641.97;5008663;28;20026;-90
2022/03/10 06:05:02;;;;;;;5.10;2.90;;;;;;;17.51;49.33;99644.56;5007426;28;20026;-91
2022/03/10 06:07:28;;;;;;;5.65;3.05;;;;;;;17.52;49.11;99650.66;5006554;28;20021;-90
2022/03/10 06:09:55;;;;;;;4.85;2.47;;;;;;;17.52;49.23;99650.66;5006417;28;20105;-91
2022/03/10 06:12:26;;;;;;;4.30;2.42;;;;;;;17.50;49.07;99648.13;5008216;28;20038;-91
2022/03/10 06:14:56;;;;;;;5.00;3.15;;;;;;;17.49;49.21;99645.53;5014559;28;20371;-91
2022/03/10 06:17:23;;;;;;;5.78;2.78;;;;;;;17.49;49.20;99645.53;5029192;28;20041;-90
2022/03/10 06:19:50;;;;;;;4.88;2.70;;;;;;;17.49;49.48;99645.53;5006707;28;20030;-91
2022/03/10 06:22:20;;;;;;;4.88;3.00;;;;;;;17.48;49.37;99649.09;5007657;28;20089;-90
2022/03/10 06:24:47;;;;;;;5.00;2.50;;;;;;;17.48;49.30;99646.47;5009997;28;20018;-91
2022/03/10 06:27:13;;;;;;;4.60;2.55;;;;;;;17.47;49.43;99652.69;5010877;28;20026;-91
2022/03/10 06:29:40;;;;;;;4.68;2.90;;;;;;;17.46;49.07;99651.81;5010038;28;20026;-91
2022/03/10 06:32:06;;;;;;;6.68;3.40;;;;;;;17.47;49.28;99652.69;5011622;28;20026;-91
2022/03/10 06:34:31;;;;;;;4.53;2.70;;;;;;;17.45;49.39;99650.94;5028693;28;20041;-91
2022/03/10 06:36:57;;;;;;;4.55;2.67;;;;;;;17.45;49.22;99660.66;5010004;28;20026;-91
2022/03/10 06:39:23;;;;;;;4.70;2.72;;;;;;;17.47;49.32;99663.22;5013578;28;20036;-91
2022/03/10 06:41:49;;;;;;;4.40;2.70;;;;;;;17.48;49.17;99670.22;5009516;28;20021;-91
2022/03/10 06:44:15;;;;;;;4.78;2.85;;;;;;;17.48;49.39;99664.94;5009128;28;20025;-91
2022/03/10 06:46:40;;;;;;;5.78;3.15;;;;;;;17.47;49.04;99664.06;5027201;28;20049;-90
2022/03/10 06:49:06;;;;;;;6.68;2.90;;;;;;;17.48;49.31;99664.94;5007806;28;20026;-90
2022/03/10 06:51:31;;;;;;;6.90;2.90;;;;;;;17.47;49.32;99663.22;5007768;28;20032;-90
2022/03/10 06:53:58;;;;;;;4.75;2.67;;;;;;;17.47;49.47;99652.69;5008107;28;20122;-90
2022/03/10 06:56:24;;;;;;;5.82;2.92;;;;;;;17.46;49.46;99662.34;5007215;28;20022;-90
2022/03/10 06:58:49;;;;;;;5.25;2.72;;;;;;;17.46;49.22;99659.72;5008400;28;20459;-92
2022/03/10 07:01:15;;;;;;;6.32;2.83;;;;;;;17.45;49.50;99660.66;5009273;28;20022;-90
2022/03/10 07:03:40;;;;;;;5.03;3.13;;;;;;;17.44;49.49;99649.22;5010414;28;20025;-91
2022/03/10 07:06:06;;;;;;;6.03;3.05;;;;;;;17.47;49.47;99660.59;5007166;28;20041;-91
2022/03/10 07:08:32;;;;;;;5.57;3.10;;;;;;;17.44;49.53;99659.78;5007555;28;20463;-91
2022/03/10 07:10:57;;;;;;;4.68;3.05;;;;;;;17.48;49.20;99654.38;5008830;28;20025;-91
2022/03/10 07:13:23;;;;;;;4.60;2.78;;;;;;;17.44;49.63;99651.88;5008851;28;20105;-91
2022/03/10 07:15:48;;;;;;;4.63;2.90;;;;;;;17.44;49.71;99649.22;5008931;28;20060;-92
2022/03/10 07:18:14;;;;;;;4.88;3.17;;;;;;;17.44;49.37;99653.66;5008244;28;20030;-91
2022/03/10 07:20:40;;;;;;;5.35;3.22;;;;;;;17.44;49.22;99649.22;5007821;28;20022;-91
2022/03/10 07:23:05;;;;;;;4.57;3.20;;;;;;;17.45;49.47;99653.56;5007249;28;20053;-92
2022/03/10 07:25:31;;;;;;;4.80;3.08;;;;;;;17.44;49.46;99657.16;5014509;28;20058;-91
2022/03/10 07:27:56;;;;;;;5.63;3.35;;;;;;;17.43;49.41;99651.91;5007679;28;20030;-91
2022/03/10 07:30:22;;;;;;;5.97;3.28;;;;;;;17.45;49.48;99671.19;5008856;28;20038;-91
2022/03/10 07:32:48;;;;;;;6.45;3.75;;;;;;;17.43;49.42;99660.72;5008045;28;20022;-91
2022/03/10 07:35:14;;;;;;;5.18;3.10;;;;;;;17.43;49.30;99667.75;5007464;28;20026;-92
2022/03/10 07:37:39;;;;;;;7.07;3.55;;;;;;;17.43;49.50;99665.97;5007863;28;20026;-90
2022/03/10 07:40:06;;;;;;;4.65;3.17;;;;;;;17.44;49.44;99658.94;5008460;28;20364;-91
2022/03/10 07:42:32;;;;;;;6.93;3.38;;;;;;;17.43;49.37;99658.06;5008425;28;20022;-91
2022/03/10 07:44:57;;;;;;;6.50;3.42;;;;;;;17.43;49.49;99671.25;5010192;28;20026;-91
2022/03/10 07:47:23;;;;;;;6.10;3.30;;;;;;;17.42;49.76;99664.28;5008870;28;20036;-91
2022/03/10 07:49:48;;;;;;;5.32;3.35;;;;;;;17.43;49.48;99676.53;5013583;28;20333;-91
2022/03/10 07:52:14;;;;;;;5.57;3.08;;;;;;;17.43;49.69;99678.31;5009110;28;20101;-90
2022/03/10 07:54:40;;;;;;;4.40;2.90;;;;;;;17.43;49.44;99681.81;5010061;28;20057;-91
2022/03/10 07:57:05;;;;;;;5.15;3.03;;;;;;;17.43;49.57;99681.81;5008994;28;20032;-90
2022/03/10 07:59:31;;;;;;;6.00;3.28;;;;;;;17.42;49.62;99682.75;5009336;28;20030;-91
2022/03/10 08:01:56;;;;;;;5.72;3.10;;;;;;;17.44;49.49;99691.44;5009867;28;20037;-91
2022/03/10 08:04:22;;;;;;;6.78;3.30;;;;;;;17.45;49.46;99689.66;5008760;28;20064;-91
2022/03/10 08:06:48;;;;;;;5.15;3.00;;;;;;;17.44;49.51;99686.16;5008549;28;20030;-91
2022/03/10 08:09:13;;;;;;;5.53;3.38;;;;;;;17.45;49.53;99693.16;5025754;28;20069;-91
2022/03/10 08:11:40;;;;;;;6.82;3.45;;;;;;;17.46;49.64;99688.75;5008718;28;20104;-91
2022/03/10 08:14:06;;;;;;;5.40;3.25;;;;;;;17.47;49.45;99679.06;5012101;28;20056;-90
2022/03/10 08:16:33;;;;;;;7.07;3.45;;;;;;;17.45;49.64;99672.03;5016737;28;20030;-91
2022/03/10 08:18:59;;;;;;;7.25;3.40;;;;;;;17.47;49.78;99673.78;5008547;28;20029;-91
2022/03/10 08:21:26;;;;;;;5.82;3.03;;;;;;;17.47;49.71;99679.06;5009532;28;20341;-91
2022/03/10 08:23:52;;;;;;;8.10;3.60;;;;;;;17.47;49.71;99673.78;5009139;28;20021;-91
2022/03/10 08:26:18;;;;;;;7.15;3.30;;;;;;;17.48;49.56;99670.22;5026307;28;20022;-91
2022/03/10 08:28:45;;;;;;;5.78;3.40;;;;;;;17.47;49.77;99673.78;5010085;28;20100;-91
2022/03/10 08:31:11;;;;;;;6.00;3.30;;;;;;;17.48;49.83;99664.94;5028197;28;20061;-90
2022/03/10 08:33:37;;;;;;;5.28;3.10;;;;;;;17.48;49.94;99665.78;5010348;28;20430;-91
2022/03/10 08:36:05;;;;;;;4.65;3.20;;;;;;;17.47;49.69;99671.97;5009651;28;20037;-91
2022/03/10 08:38:32;;;;;;;4.55;3.15;;;;;;;17.48;49.67;99664.94;5010870;28;20029;-91
2022/03/10 08:40:59;;;;;;;5.18;3.08;;;;;;;17.49;49.94;99666.66;5010441;28;20025;-91
2022/03/10 08:43:28;;;;;;;4.68;2.83;;;;;;;17.49;50.04;99656.97;5013244;28;20073;-91
2022/03/10 08:45:55;;;;;;;5.63;3.40;;;;;;;17.49;49.71;99656.97;5010176;28;20037;-91
2022/03/10 08:48:21;;;;;;;5.70;3.50;;;;;;;17.49;49.80;99653.47;5010506;28;20134;-91
2022/03/10 08:50:48;;;;;;;5.65;3.47;;;;;;;17.50;49.93;99657.81;5010131;28;20030;-90
2022/03/10 08:53:14;;;;;;;5.78;3.20;;;;;;;17.50;49.86;99663.09;5010050;28;20029;-90
2022/03/10 08:55:39;;;;;;;5.97;3.03;;;;;;;17.49;49.93;99646.41;5009534;28;20064;-91
2022/03/10 08:58:05;;;;;;;4.97;2.67;;;;;;;17.51;49.77;99654.25;5009033;28;20482;-91
2022/03/10 09:00:31;;;;;;;5.43;3.30;;;;;;;17.51;49.92;99646.31;5008858;28;20037;-91
2022/03/10 09:02:57;;;;;;;4.97;2.88;;;;;;;17.53;49.92;99655.03;5008903;28;20022;-91
2022/03/10 09:05:23;;;;;;;4.85;2.95;;;;;;;17.52;49.88;99654.19;5011627;28;20022;-91
2022/03/10 09:07:49;;;;;;;5.05;3.08;;;;;;;17.55;49.60;99655.81;5008853;28;20029;-91
2022/03/10 09:10:15;;;;;;;4.60;2.80;;;;;;;17.55;49.95;99663.75;5025112;28;20057;-91
2022/03/10 09:12:41;;;;;;;5.13;2.55;;;;;;;17.55;49.95;99655.81;5008618;28;20025;-90
2022/03/10 09:15:07;;;;;;;5.65;3.10;;;;;;;17.56;49.75;99658.41;5008838;28;20467;-91
2022/03/10 09:17:32;;;;;;;6.40;2.80;;;;;;;17.55;49.78;99666.38;5008291;28;20036;-91
2022/03/10 09:19:58;;;;;;;5.30;3.13;;;;;;;17.56;49.81;99657.53;5008032;28;20060;-91
2022/03/10 09:22:25;;;;;;;4.75;2.60;;;;;;;17.57;49.84;99648.69;5007956;28;20017;-91
2022/03/10 09:24:52;;;;;;;6.40;2.95;;;;;;;17.60;49.69;99652.97;5009002;28;20022;-91
2022/03/10 09:27:18;;;;;;;4.93;2.55;;;;;;;17.58;50.04;99655.72;5010250;28;20030;-92
2022/03/10 09:29:44;;;;;;;4.75;2.47;;;;;;;17.59;49.97;99652.13;5008061;28;20049;-92
2022/03/10 09:32:10;;;;;;;5.18;2.60;;;;;;;17.61;49.83;99654.69;5009319;28;20033;-91
2022/03/10 09:34:36;;;;;;;4.15;2.30;;;;;;;17.61;50.08;99650.28;5008559;28;20026;-91
2022/03/10 09:37:02;;;;;;;5.28;2.42;;;;;;;17.62;49.91;99644.06;5009059;28;20105;-91
2022/03/10 09:39:27;;;;;;;4.30;2.33;;;;;;;17.62;49.60;99641.44;5008811;28;20025;-91
2022/03/10 09:41:55;;;;;;;5.15;2.78;;;;;;;17.62;49.74;99636.16;5025403;28;20026;-91
2022/03/10 09:44:21;;;;;;;4.55;2.50;;;;;;;17.64;49.94;99641.38;5008430;28;20030;-92
2022/03/10 09:46:50;;;;;;;4.63;2.70;;;;;;;17.65;49.89;99635.16;5008375;28;20036;-91
2022/03/10 09:49:19;;;;;;;4.20;2.50;;;;;;;17.65;50.19;99628.13;5007861;28;20017;-90
2022/03/10 09:51:47;;;;;;;5.00;3.00;;;;;;;17.66;49.64;99636.88;5010567;28;20060;-91
2022/03/10 09:54:12;;;;;;;4.07;2.63;;;;;;;17.67;50.18;99630.69;5008815;28;20026;-92
2022/03/10 09:56:42;;;;;;;5.13;2.40;;;;;;;17.66;50.38;99624.56;5009926;28;20036;-91
2022/03/10 09:59:08;;;;;;;4.65;2.30;;;;;;;17.67;50.57;99625.41;5011832;28;20029;-91
2022/03/10 10:01:34;;;;;;;5.40;3.03;;;;;;;17.68;50.88;99625.31;5009373;28;20096;-90
2022/03/10 10:04:00;;;;;;;3.88;2.40;;;;;;;17.67;50.33;99626.25;5010577;28;20021;-92
2022/03/10 10:06:26;;;;;;;6.28;2.72;;;;;;;17.69;50.04;99621.75;5010790;28;20030;-91
2022/03/10 10:08:56;;;;;;;5.40;2.65;;;;;;;17.70;50.07;99618.22;5012298;28;20053;-92
2022/03/10 10:11:35;;;;;;;5.43;2.53;;;;;;;17.73;49.69;99605.81;5011300;28;20025;-92
2022/03/10 10:14:01;;;;;;;3.85;2.15;;;;;;;17.73;49.81;99605.81;5012495;28;20049;-90
2022/03/10 10:16:26;;;;;;;4.07;2.63;;;;;;;17.75;50.21;99607.44;5013109;28;20029;-91
2022/03/10 10:18:57;;;;;;;4.47;2.42;;;;;;;17.77;50.21;99604.75;5012013;28;20478;-91
2022/03/10 10:21:24;;;;;;;4.47;2.42;;;;;;;17.76;49.63;99598.59;5014770;28;20025;-90
2022/03/10 10:23:53;;;;;;;4.95;2.30;;;;;;;17.78;49.97;99587.97;5013235;28;20022;-91
2022/03/10 10:26:25;;;;;;;4.90;2.55;;;;;;;17.79;49.98;99585.28;5013981;28;20030;-91
2022/03/10 10:28:51;;;;;;;5.57;2.58;;;;;;;17.81;50.01;99587.81;5012495;28;20117;-90
2022/03/10 10:31:20;;;;;;;4.30;2.58;;;;;;;17.81;49.74;99582.53;5012670;28;20033;-91
2022/03/10 10:34:02;;;;;;;4.85;2.65;;;;;;;17.81;49.59;99577.25;5029692;28;20026;-91
2022/03/10 10:36:33;;;;;;;5.20;2.60;;;;;;;17.83;49.73;99570.16;5013280;28;20026;-91
2022/03/10 10:39:15;;;;;;;6.13;2.47;;;;;;;17.84;49.86;99566.56;5012541;28;20102;-90
2022/03/10 10:41:43;;;;;;;4.18;2.40;;;;;;;17.86;49.41;99567.34;5014150;28;20002;-90
2022/03/10 10:44:16;;;;;;;5.10;2.10;;;;;;;17.86;49.28;99554.16;5012312;28;20065;-91
2022/03/10 10:46:58;;;;;;;4.90;2.60;;;;;;;17.86;49.53;99551.50;5012495;28;20414;-91
2022/03/10 10:49:24;;;;;;;3.97;2.15;;;;;;;17.88;49.47;99557.59;5011568;28;20026;-91
2022/03/10 10:51:54;;;;;;;6.20;2.42;;;;;;;17.89;49.48;99553.16;5011284;28;20026;-91
2022/03/10 10:54:20;;;;;;;3.75;2.47;;;;;;;17.89;49.27;99554.03;5011736;28;20121;-91
2022/03/10 10:56:47;;;;;;;4.40;2.33;;;;;;;17.90;49.44;99555.72;5027739;28;20022;-91
2022/03/10 10:59:31;;;;;;;5.03;2.58;;;;;;;17.92;49.06;99559.16;5009729;28;20362;-91
2022/03/10 11:02:09;;;;;;;4.70;2.53;;;;;;;17.92;49.17;99561.78;5010887;28;20026;-91
2022/03/10 11:04:36;;;;;;;5.38;2.53;;;;;;;17.93;49.73;99560.84;5030266;28;20371;-91
2022/03/10 11:07:03;;;;;;;5.75;2.53;;;;;;;17.94;49.38;99556.44;5011598;28;20032;-91
2022/03/10 11:09:32;;;;;;;5.72;2.25;;;;;;;17.94;49.33;99552.03;5009419;28;20069;-92
2022/03/10 11:11:57;;;;;;;4.97;2.55;;;;;;;17.95;49.40;99553.75;5010474;28;20022;-91
2022/03/10 11:14:23;;;;;;;5.28;2.63;;;;;;;17.97;49.19;99541.31;5009286;28;20036;-91
2022/03/10 11:16:49;;;;;;;4.80;3.05;;;;;;;17.97;49.27;99541.31;5008368;28;20081;-91
2022/03/10 11:19:17;;;;;;;5.18;2.47;;;;;;;18.00;49.28;99539.47;5008391;28;20026;-90
2022/03/10 11:22:05;;;;;;;3.78;2.20;;;;;;;18.01;48.80;99543.81;5009357;28;20065;-91
2022/03/10 11:24:52;;;;;;;4.00;2.08;;;;;;;18.02;48.95;99541.09;5028827;28;20096;-91
2022/03/10 11:27:39;;;;;;;4.07;2.50;;;;;;;18.02;49.42;99538.44;5013299;28;20535;-91
2022/03/10 11:30:09;;;;;;;5.07;2.90;;;;;;;18.04;49.09;99546.31;5010628;28;20064;-91
2022/03/10 11:32:35;;;;;;;4.90;2.47;;;;;;;18.05;48.99;99548.00;5008880;28;20034;-91
2022/03/10 11:35:02;;;;;;;4.43;2.45;;;;;;;18.06;49.26;99550.63;5008411;28;20022;-91
2022/03/10 11:37:50;;;;;;;4.10;2.40;;;;;;;18.08;49.13;99547.91;5008455;28;20030;-91
2022/03/10 11:40:18;;;;;;;4.85;2.20;;;;;;;18.09;49.02;99544.34;5024726;28;20026;-91